Diablo, Washington
Current Conditions -  °F | °C
As of 12:55 AM on Sunday 23 Nov 2014 (Local Time) from KAWO Reporting Station
Overcast Overcast  
Wind Chill: 41°   Ceiling: 1800
Heat Index: 46°   Visibility: 10mi
Dew Point: 39°   Wind: 10mph
Humidity: 76%   Direction: 120°ESE
Pressure: 30.14"   Gusts: NA
Location:  48.571°N, 121.561°W
Report Text: KAWO 230855Z AUTO 12009KT 10SM OVC018 08/04 A3014 RMK AO1 52014
Loading
Personal Weather Stations






























Interactive Weather Map New forecast layout! Learn more

10-Day Weather Forecast

Advertisements
Track Severe Weather on mobile